createdAt,value
2022-12-15T00:00:35.697Z,93887.44
2022-12-15T00:01:50.909Z,93915.28
2022-12-15T00:03:06.306Z,93876.44
2022-12-15T00:04:21.963Z,93759.75
2022-12-15T00:05:37.240Z,93476.72
2022-12-15T00:06:52.372Z,93652.38
2022-12-15T00:08:08.055Z,93876.63
2022-12-15T00:09:29.281Z,93885.44
2022-12-15T00:10:46.171Z,93847.41
2022-12-15T00:12:01.372Z,93954.34
2022-12-15T00:13:16.571Z,93920.28
2022-12-15T00:14:32.078Z,93922.88
2022-12-15T00:15:47.675Z,93899.03
2022-12-15T00:17:03.003Z,93955.13
2022-12-15T00:18:24.744Z,93915.06
2022-12-15T00:19:40.136Z,93317.84
2022-12-15T00:20:55.662Z,93919.28
2022-12-15T00:22:11.130Z,93949.47
2022-12-15T00:23:28.662Z,93767.34
2022-12-15T00:24:44.210Z,93914.66
2022-12-15T00:26:05.020Z,93952.34
2022-12-15T00:27:20.537Z,93960.53
2022-12-15T00:28:35.968Z,93964.31
2022-12-15T00:29:51.453Z,93667.56
2022-12-15T00:31:06.867Z,93806.56
2022-12-15T00:32:22.476Z,93854.22
2022-12-15T00:33:37.825Z,93953.94
2022-12-15T00:34:53.284Z,93950.53
2022-12-15T00:36:08.731Z,93931.50
2022-12-15T00:37:24.065Z,93950.31
2022-12-15T00:38:39.639Z,93855.44
2022-12-15T00:40:51.636Z,93928.25
2022-12-15T00:41:48.421Z,93920.66
2022-12-15T00:42:45.479Z,93904.41
2022-12-15T00:43:46.954Z,93914.19
2022-12-15T00:44:43.995Z,93910.59
2022-12-15T00:45:59.609Z,93901.38
2022-12-15T00:46:56.878Z,93873.75
2022-12-15T00:47:53.698Z,93917.84
2022-12-15T00:48:50.526Z,93862.16
2022-12-15T00:50:05.753Z,93817.56
2022-12-15T00:51:02.931Z,93909.88
2022-12-15T00:52:20.670Z,93881.34
2022-12-15T00:53:40.000Z,93879.22
2022-12-15T00:54:55.301Z,93873.81
2022-12-15T00:56:10.383Z,93881.56
2022-12-15T00:57:26.755Z,93605.41
2022-12-15T00:58:51.180Z,93851.94
2022-12-15T01:00:06.462Z,93880.13
2022-12-15T01:01:29.691Z,93815.50
2022-12-15T01:02:45.559Z,93885.56
2022-12-15T01:04:01.092Z,93851.88
2022-12-15T01:05:17.671Z,93782.47
2022-12-15T01:06:36.246Z,93845.78
2022-12-15T01:07:52.158Z,93847.63
2022-12-15T01:09:08.017Z,93721.34
2022-12-15T01:10:24.328Z,93722.94
2022-12-15T01:11:39.898Z,93819.38
2022-12-15T01:12:55.343Z,93847.00
2022-12-15T01:14:11.039Z,93764.75
2022-12-15T01:15:26.582Z,93816.72
2022-12-15T01:16:42.254Z,93875.97
2022-12-15T01:17:57.849Z,93842.06
2022-12-15T01:19:13.295Z,93881.78
2022-12-15T01:20:18.230Z,93863.63
2022-12-15T01:21:15.106Z,93871.84
2022-12-15T01:22:11.994Z,93887.84
2022-12-15T01:23:08.836Z,93639.75
2022-12-15T01:24:05.866Z,93717.16
2022-12-15T01:25:02.708Z,93739.34
2022-12-15T01:25:59.759Z,93879.81
2022-12-15T01:26:57.091Z,93857.34
2022-12-15T01:27:56.925Z,93845.28
2022-12-15T01:28:54.265Z,93825.22
2022-12-15T01:29:51.349Z,93885.25
2022-12-15T01:30:50.254Z,93851.94
2022-12-15T01:31:50.035Z,93856.28
2022-12-15T01:32:47.615Z,93843.19
2022-12-15T01:33:44.443Z,93788.34
2022-12-15T01:34:41.246Z,93852.06
2022-12-15T01:35:38.899Z,93880.59
2022-12-15T01:36:35.746Z,93866.16
2022-12-15T01:37:33.450Z,93893.81
2022-12-15T01:38:30.259Z,93859.44
2022-12-15T01:39:46.951Z,93609.41
2022-12-15T01:40:52.067Z,93761.56
2022-12-15T01:41:48.832Z,93821.19
2022-12-15T01:42:45.931Z,93776.88
2022-12-15T01:43:42.695Z,93748.13
2022-12-15T01:44:39.538Z,93843.59
2022-12-15T01:45:50.456Z,93848.38
2022-12-15T01:46:51.855Z,93860.13
2022-12-15T01:47:49.033Z,93884.59
2022-12-15T01:49:10.637Z,93856.63
2022-12-15T01:50:14.912Z,93852.84
2022-12-15T01:51:20.492Z,93830.78
2022-12-15T01:52:18.435Z,93758.38
2022-12-15T01:53:16.755Z,93775.50
2022-12-15T01:54:19.977Z,93836.78
2022-12-15T01:55:20.199Z,93833.66
2022-12-15T01:56:17.949Z,93775.25
2022-12-15T01:57:21.162Z,93820.03
2022-12-15T01:58:22.426Z,93826.06
2022-12-15T01:59:27.112Z,93751.72
2022-12-15T02:00:24.106Z,93831.69
2022-12-15T02:01:21.200Z,93824.59
2022-12-15T02:02:22.383Z,93813.97
2022-12-15T02:03:20.195Z,93794.81
2022-12-15T02:04:20.776Z,93802.13
2022-12-15T02:05:18.155Z,93723.50
2022-12-15T02:06:17.882Z,93802.81
2022-12-15T02:07:17.104Z,93637.31
2022-12-15T02:08:14.212Z,93668.06
2022-12-15T02:09:11.235Z,93862.59
2022-12-15T02:10:10.569Z,93674.28
2022-12-15T02:11:22.507Z,93822.75
2022-12-15T02:12:37.408Z,93822.22
2022-12-15T02:14:08.446Z,93586.94
2022-12-15T02:15:07.998Z,93796.50
2022-12-15T02:16:36.639Z,93804.38
2022-12-15T02:18:07.503Z,93789.88
2022-12-15T02:19:24.488Z,93801.66
2022-12-15T02:20:51.770Z,93781.88
2022-12-15T02:22:22.122Z,93834.75
2022-12-15T02:23:28.177Z,93795.94
2022-12-15T02:24:28.115Z,93797.84
2022-12-15T02:25:42.785Z,93739.22
2022-12-15T02:27:12.305Z,93801.91
2022-12-15T02:28:24.123Z,93767.13
2022-12-15T02:29:37.455Z,93803.69
2022-12-15T02:30:45.447Z,93812.94
2022-12-15T02:32:10.087Z,93803.00
2022-12-15T02:33:30.295Z,93828.91
2022-12-15T02:34:50.072Z,93787.19
2022-12-15T02:35:49.990Z,93800.75
2022-12-15T02:36:58.324Z,93820.97
2022-12-15T02:37:55.370Z,93759.69
2022-12-15T02:38:52.116Z,93623.81
2022-12-15T02:39:49.000Z,93795.59
2022-12-15T02:40:46.397Z,93798.63
2022-12-15T02:41:46.180Z,93590.63
2022-12-15T02:42:47.821Z,93723.81
2022-12-15T02:44:03.229Z,93829.81
2022-12-15T02:45:06.502Z,93820.16
2022-12-15T02:46:21.774Z,93823.00
2022-12-15T02:47:46.240Z,93829.59
2022-12-15T02:49:13.132Z,93845.06
2022-12-15T02:50:38.374Z,93705.44
2022-12-15T02:52:12.146Z,93830.97
2022-12-15T02:53:36.770Z,93836.91
2022-12-15T02:54:50.631Z,93789.25
2022-12-15T02:56:12.283Z,93832.44
2022-12-15T02:57:41.576Z,93719.00
2022-12-15T02:59:19.457Z,93771.16
2022-12-15T03:00:18.388Z,93899.66
2022-12-15T03:01:30.639Z,93834.69
2022-12-15T03:02:51.079Z,93604.53
2022-12-15T03:03:50.113Z,93652.28
2022-12-15T03:04:47.174Z,93639.94
2022-12-15T03:05:44.081Z,93868.25
2022-12-15T03:06:40.967Z,93711.41
2022-12-15T03:07:37.691Z,93865.66
2022-12-15T03:08:34.452Z,93817.63
2022-12-15T03:09:32.549Z,93816.44
2022-12-15T03:10:29.491Z,93869.84
2022-12-15T03:11:26.775Z,93879.03
2022-12-15T03:12:23.622Z,93778.59
2022-12-15T03:13:21.529Z,93767.03
2022-12-15T03:14:18.559Z,93809.84
2022-12-15T03:15:15.475Z,93852.06
2022-12-15T03:16:12.564Z,93867.63
2022-12-15T03:17:09.302Z,93868.41
2022-12-15T03:18:06.129Z,93475.59
2022-12-15T03:19:02.932Z,93690.69
2022-12-15T03:19:59.679Z,93819.38
2022-12-15T03:20:56.551Z,93852.16
2022-12-15T03:21:53.450Z,93839.69
2022-12-15T03:22:52.934Z,93820.88
2022-12-15T03:23:49.729Z,93513.91
2022-12-15T03:24:46.471Z,93799.50
2022-12-15T03:25:49.932Z,93682.19
2022-12-15T03:26:50.150Z,93810.13
2022-12-15T03:27:47.543Z,93733.97
2022-12-15T03:28:44.340Z,93855.31
2022-12-15T03:29:41.129Z,93710.31
2022-12-15T03:30:38.481Z,93826.16
2022-12-15T03:31:35.735Z,93861.41
2022-12-15T03:32:32.655Z,93852.38
2022-12-15T03:33:33.405Z,93617.38
2022-12-15T03:34:30.874Z,93868.22
2022-12-15T03:35:27.605Z,93849.59
2022-12-15T03:36:24.432Z,93832.50
2022-12-15T03:55:49.758Z,93886.66
2022-12-15T03:56:46.532Z,93887.44
2022-12-15T03:57:43.312Z,93783.72
2022-12-15T03:58:40.025Z,93871.81
2022-12-15T03:59:36.760Z,93754.50
2022-12-15T04:00:34.050Z,93760.97
2022-12-15T04:01:34.400Z,93739.94
2022-12-15T04:02:31.341Z,93910.25
2022-12-15T04:03:28.832Z,93888.94
2022-12-15T04:04:25.930Z,93929.41
2022-12-15T04:05:27.522Z,93596.63
2022-12-15T04:06:24.387Z,93841.38
2022-12-15T04:07:21.109Z,93904.06
2022-12-15T04:08:17.902Z,93869.03
2022-12-15T04:09:14.681Z,93859.81
2022-12-15T04:10:12.420Z,93802.56
2022-12-15T04:11:09.153Z,93396.91
2022-12-15T04:12:06.072Z,93823.34
2022-12-15T04:13:09.280Z,93826.75
2022-12-15T04:14:06.051Z,93853.41
2022-12-15T04:15:02.830Z,93712.53
2022-12-15T04:16:02.309Z,93877.84
2022-12-15T04:16:59.204Z,93902.69
2022-12-15T04:17:56.873Z,93895.84
2022-12-15T04:19:27.299Z,93801.38
2022-12-15T04:20:24.388Z,93897.66
2022-12-15T04:21:21.176Z,93903.47
2022-12-15T04:22:18.265Z,93899.28
2022-12-15T04:23:15.069Z,93904.69
2022-12-15T04:24:30.319Z,93811.38
2022-12-15T04:25:46.517Z,93836.97
2022-12-15T04:27:01.814Z,93750.97
2022-12-15T04:28:18.120Z,93680.53
2022-12-15T04:29:33.749Z,93676.94
2022-12-15T04:30:50.428Z,93879.72
2022-12-15T04:32:06.000Z,93783.97
2022-12-15T04:33:26.398Z,93841.91
2022-12-15T04:34:45.797Z,93798.16
2022-12-15T04:36:01.004Z,93884.94
2022-12-15T04:37:16.703Z,93874.13
2022-12-15T04:38:31.915Z,93875.28
2022-12-15T04:39:47.504Z,93752.03
2022-12-15T04:41:03.020Z,93877.03
2022-12-15T04:42:21.156Z,93898.19
2022-12-15T04:43:36.688Z,93884.47
2022-12-15T04:44:51.910Z,93883.00
2022-12-15T04:46:07.439Z,93805.34
2022-12-15T04:47:22.606Z,93882.94
2022-12-15T04:48:38.166Z,93896.38
2022-12-15T04:49:53.549Z,93838.97
2022-12-15T04:51:09.144Z,93728.53
2022-12-15T04:52:24.537Z,93887.78
2022-12-15T04:53:40.256Z,93895.81
2022-12-15T04:54:55.171Z,93792.97
2022-12-15T04:56:16.532Z,93896.88
2022-12-15T04:57:33.920Z,93804.38
2022-12-15T04:58:49.447Z,93837.56
2022-12-15T05:00:04.903Z,93870.63
2022-12-15T05:01:20.241Z,93842.19
2022-12-15T05:02:35.676Z,93672.72
2022-12-15T05:03:50.865Z,93831.38
2022-12-15T05:05:06.180Z,93876.66
2022-12-15T05:06:21.505Z,93942.50
2022-12-15T05:07:37.348Z,93885.81
2022-12-15T05:08:52.833Z,93939.53
2022-12-15T05:10:14.358Z,93934.31
2022-12-15T05:11:30.229Z,93874.56
2022-12-15T05:12:45.797Z,93955.13
2022-12-15T05:14:01.259Z,93967.56
2022-12-15T05:15:16.683Z,93936.72
2022-12-15T05:16:32.028Z,93901.06
2022-12-15T05:17:48.352Z,93983.19
2022-12-15T05:19:03.562Z,93984.81
2022-12-15T05:20:19.096Z,93994.00
2022-12-15T05:21:34.490Z,93913.88
2022-12-15T05:22:50.072Z,93809.38
2022-12-15T05:24:05.414Z,93997.22
2022-12-15T05:25:21.050Z,93826.56
2022-12-15T05:26:36.238Z,93928.72
2022-12-15T05:27:51.771Z,93969.19
2022-12-15T05:29:07.209Z,93868.78
2022-12-15T05:30:22.963Z,93975.56
2022-12-15T05:31:38.481Z,93925.69
2022-12-15T05:32:35.292Z,94052.16
2022-12-15T05:33:32.301Z,93987.63
2022-12-15T05:34:32.569Z,93929.44
2022-12-15T05:35:29.359Z,93928.81
2022-12-15T05:36:26.169Z,93805.56
2022-12-15T05:37:30.463Z,93972.34
2022-12-15T05:38:27.629Z,94026.28
2022-12-15T05:39:25.200Z,93860.63
2022-12-15T05:40:21.893Z,94017.25
2022-12-15T05:41:20.686Z,93934.50
2022-12-15T05:42:17.856Z,94018.66
2022-12-15T05:43:14.556Z,94041.69
2022-12-15T05:44:11.586Z,93832.75
2022-12-15T05:45:10.283Z,93801.19
2022-12-15T05:46:07.896Z,94036.09
2022-12-15T05:47:04.978Z,94034.28
2022-12-15T05:48:01.785Z,93939.88
2022-12-15T05:48:59.001Z,94051.69
2022-12-15T05:49:55.778Z,94010.41
2022-12-15T05:50:52.629Z,94002.75
2022-12-15T05:51:49.623Z,94043.13
2022-12-15T05:52:49.504Z,93821.72
2022-12-15T05:53:46.456Z,94070.66
2022-12-15T05:54:44.055Z,94051.59
2022-12-15T05:55:41.290Z,94012.13
2022-12-15T05:56:38.487Z,94087.63
2022-12-15T05:57:35.287Z,94052.31
2022-12-15T05:58:32.559Z,94089.28
2022-12-15T05:59:29.292Z,94012.22
2022-12-15T06:00:26.091Z,93989.03
2022-12-15T06:01:23.862Z,93909.19
2022-12-15T06:02:20.704Z,94086.69
2022-12-15T06:03:17.511Z,94112.41
2022-12-15T06:04:14.423Z,94094.44
2022-12-15T06:05:11.320Z,94078.66
2022-12-15T06:06:10.026Z,93887.66
2022-12-15T06:07:06.975Z,94085.06
2022-12-15T06:08:04.087Z,94084.47
2022-12-15T06:09:00.836Z,93823.09
2022-12-15T06:09:57.620Z,94054.00
2022-12-15T06:10:54.756Z,94031.91
2022-12-15T06:11:51.597Z,94001.78
2022-12-15T06:12:48.336Z,94084.97
2022-12-15T06:13:46.641Z,94038.66
2022-12-15T06:14:43.397Z,94098.00
2022-12-15T06:15:40.273Z,93989.69
2022-12-15T06:16:42.649Z,94094.00
2022-12-15T06:17:49.683Z,93970.25
2022-12-15T06:18:53.014Z,94098.44
2022-12-15T06:19:50.738Z,94001.19
2022-12-15T06:20:47.465Z,94121.50
2022-12-15T06:21:46.599Z,94002.75
2022-12-15T06:22:49.618Z,94116.56
2022-12-15T06:23:48.127Z,94083.72
2022-12-15T06:24:45.389Z,94111.19
2022-12-15T06:25:42.280Z,93937.75
2022-12-15T06:26:40.402Z,94041.06
2022-12-15T06:27:37.913Z,94065.78
2022-12-15T06:28:35.291Z,94059.53
2022-12-15T06:29:32.299Z,94057.91
2022-12-15T06:30:29.109Z,94111.84
2022-12-15T06:31:26.781Z,94028.81
2022-12-15T06:32:23.704Z,94009.59
2022-12-15T06:33:23.392Z,94122.72
2022-12-15T06:34:20.171Z,94107.47
2022-12-15T06:35:16.894Z,94105.28
2022-12-15T06:36:15.188Z,94021.56
2022-12-15T06:37:15.254Z,94088.22
2022-12-15T06:38:12.255Z,94099.84
2022-12-15T06:39:13.145Z,94116.31
2022-12-15T06:40:10.758Z,94094.22
2022-12-15T06:41:07.831Z,94069.38
2022-12-15T06:42:04.699Z,94024.28
2022-12-15T06:43:01.559Z,94133.38
2022-12-15T06:44:00.027Z,93786.72
2022-12-15T06:44:56.775Z,94086.22
2022-12-15T06:45:56.915Z,94060.16
2022-12-15T06:46:55.023Z,94081.03
2022-12-15T06:47:55.345Z,94118.09
2022-12-15T06:48:57.707Z,94147.16
2022-12-15T06:49:57.625Z,94123.72
2022-12-15T06:50:54.744Z,94097.44
2022-12-15T06:51:51.535Z,94137.16
2022-12-15T06:52:48.337Z,94114.69
2022-12-15T06:53:48.907Z,93946.94
2022-12-15T06:54:46.021Z,93947.50
2022-12-15T06:55:44.704Z,94122.72
2022-12-15T06:56:42.363Z,94034.28
2022-12-15T06:57:39.219Z,94110.66
2022-12-15T06:58:36.351Z,94099.06
2022-12-15T06:59:35.851Z,93938.28
2022-12-15T07:00:34.594Z,94119.94
2022-12-15T07:01:32.735Z,94142.56
2022-12-15T07:02:30.266Z,94126.34
2022-12-15T07:03:27.305Z,94142.56
2022-12-15T07:04:24.388Z,94116.13
2022-12-15T07:05:23.881Z,94062.16
2022-12-15T07:06:21.049Z,94110.69
2022-12-15T07:07:17.782Z,94076.41
2022-12-15T07:08:16.530Z,94156.25
2022-12-15T07:09:16.846Z,94146.19
2022-12-15T07:10:13.948Z,94157.25
2022-12-15T07:11:13.253Z,94089.66
2022-12-15T07:12:12.750Z,93879.56
2022-12-15T07:13:14.221Z,94088.22
2022-12-15T07:14:11.261Z,94012.28
2022-12-15T07:15:08.360Z,94157.25
2022-12-15T07:16:07.587Z,94126.72
2022-12-15T07:17:04.432Z,94172.50
2022-12-15T07:18:01.398Z,94169.63
2022-12-15T07:18:58.984Z,94163.63
2022-12-15T07:19:56.126Z,94175.72
2022-12-15T07:20:52.961Z,94173.28
2022-12-15T07:21:49.757Z,94077.41
2022-12-15T07:22:50.662Z,93988.19
2022-12-15T07:23:56.792Z,94189.34
2022-12-15T07:24:54.219Z,94142.19
2022-12-15T07:25:50.917Z,94172.50
2022-12-15T07:26:49.016Z,94194.97
2022-12-15T07:27:46.595Z,94181.09
2022-12-15T07:28:43.320Z,94194.19
2022-12-15T07:29:40.223Z,94196.97
2022-12-15T07:30:39.031Z,94143.59
2022-12-15T07:31:36.032Z,94168.06
2022-12-15T07:32:32.999Z,94021.47
2022-12-15T07:33:32.298Z,93998.44
2022-12-15T07:34:29.319Z,94110.69
2022-12-15T07:35:26.115Z,94124.97
2022-12-15T07:36:23.095Z,94186.53
2022-12-15T07:37:19.885Z,94068.00
2022-12-15T07:38:19.726Z,94156.03
2022-12-15T07:39:16.535Z,94198.59
2022-12-15T07:40:13.737Z,94140.59
2022-12-15T07:41:10.537Z,94123.50
2022-12-15T07:42:07.537Z,94044.09
2022-12-15T07:43:04.326Z,94163.88
2022-12-15T07:44:02.441Z,94122.28
2022-12-15T07:44:59.356Z,94163.66
2022-12-15T07:46:03.906Z,94198.19
2022-12-15T07:48:17.681Z,94168.00
2022-12-15T07:49:15.278Z,94078.88
2022-12-15T07:50:13.756Z,94195.16
2022-12-15T07:51:18.900Z,94195.69
2022-12-15T07:52:16.264Z,94217.22
2022-12-15T07:53:13.064Z,93991.56
2022-12-15T07:54:18.988Z,94100.19
2022-12-15T07:55:17.158Z,94047.41
2022-12-15T07:56:14.083Z,94031.22
2022-12-15T07:57:10.821Z,94189.97
2022-12-15T07:58:07.555Z,94222.59
2022-12-15T07:59:05.461Z,94248.34
2022-12-15T08:00:04.624Z,94241.13
2022-12-15T08:01:04.388Z,94144.38
2022-12-15T08:02:01.701Z,94116.91
2022-12-15T08:03:02.834Z,94202.59
2022-12-15T08:03:59.830Z,94241.56
2022-12-15T08:04:56.576Z,94261.44
2022-12-15T08:05:57.633Z,94047.75
2022-12-15T08:06:57.865Z,94161.22
2022-12-15T08:07:54.706Z,94232.66
2022-12-15T08:08:51.594Z,94231.47
2022-12-15T08:09:49.437Z,94187.31
2022-12-15T08:10:46.795Z,94020.69
2022-12-15T08:11:43.540Z,94181.25
2022-12-15T08:12:40.533Z,94128.91
2022-12-15T08:14:02.145Z,94237.22
2022-12-15T08:14:55.848Z,94072.44
2022-12-15T08:15:59.151Z,94198.91
2022-12-15T08:16:55.946Z,94183.63
2022-12-15T08:17:52.727Z,94239.66
2022-12-15T08:18:49.547Z,94207.25
2022-12-15T08:19:46.316Z,94068.28
2022-12-15T08:20:43.157Z,94172.41
2022-12-15T08:21:42.087Z,94179.91
2022-12-15T08:22:38.842Z,94243.56
2022-12-15T08:23:36.681Z,94191.25
2022-12-15T08:24:33.467Z,94212.00
2022-12-15T08:25:30.365Z,94057.75
2022-12-15T08:26:30.715Z,94132.56
2022-12-15T08:27:28.163Z,94204.63
2022-12-15T08:28:25.001Z,94272.28
2022-12-15T08:30:38.702Z,94218.19
2022-12-15T08:31:35.477Z,94263.22
2022-12-15T08:32:32.366Z,94268.75
2022-12-15T08:33:29.398Z,94135.84
2022-12-15T08:34:27.011Z,93838.59
2022-12-15T08:35:54.626Z,93995.97
2022-12-15T08:36:40.606Z,94064.09
2022-12-15T08:37:37.316Z,94213.97
2022-12-15T08:38:35.927Z,94285.41
2022-12-15T08:39:32.756Z,94146.91
2022-12-15T08:40:29.607Z,94267.28
2022-12-15T08:41:29.587Z,94080.94
2022-12-15T08:42:26.354Z,94224.78
2022-12-15T08:43:23.709Z,94218.97
2022-12-15T08:48:42.976Z,94262.22
2022-12-15T08:49:40.064Z,94246.53
2022-12-15T08:50:36.890Z,94290.22
2022-12-15T08:51:34.193Z,94261.63
2022-12-15T08:52:31.210Z,94261.28
2022-12-15T08:53:41.486Z,94269.34
2022-12-15T08:54:38.411Z,94267.09
2022-12-15T08:55:35.184Z,94013.13
2022-12-15T08:56:32.029Z,94253.31
2022-12-15T08:57:29.178Z,94217.81
2022-12-15T08:58:25.970Z,94277.81
2022-12-15T08:59:22.705Z,94152.56
2022-12-15T09:00:19.807Z,94272.81
2022-12-15T09:01:23.953Z,94272.53
2022-12-15T09:02:21.173Z,94203.34
2022-12-15T09:03:18.059Z,94252.06
2022-12-15T09:04:15.631Z,94238.91
2022-12-15T09:05:12.490Z,94234.22
2022-12-15T09:06:15.638Z,94258.03
2022-12-15T09:07:12.489Z,94274.03
2022-12-15T09:08:09.316Z,94147.97
2022-12-15T09:09:08.940Z,94062.47
2022-12-15T09:10:06.147Z,94114.69
2022-12-15T09:11:05.201Z,94160.69
2022-12-15T09:12:01.965Z,94269.19
2022-12-15T09:12:58.747Z,94261.06
2022-12-15T09:13:55.879Z,94258.66
2022-12-15T09:14:52.761Z,94215.41
2022-12-15T09:16:12.189Z,94083.31
2022-12-15T09:17:09.011Z,94238.31
2022-12-15T09:18:05.889Z,94162.00
2022-12-15T09:19:03.622Z,94267.66
2022-12-15T09:20:00.362Z,94308.38
2022-12-15T09:21:03.077Z,94257.06
2022-12-15T09:22:01.400Z,94224.59
2022-12-15T09:22:58.246Z,94232.91
2022-12-15T09:24:00.616Z,94241.19
2022-12-15T09:24:57.677Z,94275.28
2022-12-15T09:26:00.898Z,94277.13
2022-12-15T09:26:57.674Z,94197.50
2022-12-15T09:27:54.955Z,94274.22
2022-12-15T09:28:54.917Z,94219.63
2022-12-15T09:29:51.788Z,94171.09
2022-12-15T09:30:49.587Z,94259.88
2022-12-15T09:31:46.848Z,94217.13
2022-12-15T09:32:45.427Z,94259.50
2022-12-15T09:33:43.989Z,94262.16
2022-12-15T09:34:41.442Z,94073.09
2022-12-15T09:35:39.140Z,94255.91
2022-12-15T09:36:36.068Z,93975.69
2022-12-15T09:37:32.968Z,94245.66
2022-12-15T09:38:30.320Z,94281.44
2022-12-15T09:39:27.315Z,94152.47
2022-12-15T09:40:26.360Z,94292.47
2022-12-15T09:41:25.417Z,93971.44
2022-12-15T09:42:28.603Z,94264.78
2022-12-15T09:43:38.962Z,94159.97
2022-12-15T09:44:38.550Z,94272.06
2022-12-15T09:45:44.878Z,94276.34
2022-12-15T09:47:06.604Z,94262.03
2022-12-15T09:48:10.600Z,94269.72
2022-12-15T09:49:30.877Z,94265.47
2022-12-15T09:50:38.864Z,94264.72
2022-12-15T09:51:48.250Z,94137.03
2022-12-15T09:52:50.578Z,94279.78
2022-12-15T09:53:56.138Z,94268.78
2022-12-15T09:54:54.035Z,94284.03
2022-12-15T09:56:02.205Z,94280.22
2022-12-15T09:57:06.391Z,94293.66
2022-12-15T09:58:19.177Z,94154.28
2022-12-15T09:59:41.677Z,94299.88
2022-12-15T10:00:55.828Z,94258.50
2022-12-15T10:02:12.856Z,94246.00
2022-12-15T10:03:47.916Z,94146.66
2022-12-15T10:05:14.375Z,94217.47
2022-12-15T10:06:33.413Z,94265.03
2022-12-15T10:07:39.678Z,94283.59
2022-12-15T10:08:50.567Z,94295.25
2022-12-15T10:09:47.856Z,94280.66
2022-12-15T10:10:56.289Z,94267.47
2022-12-15T10:12:21.382Z,94296.19
2022-12-15T10:13:24.867Z,94199.78
2022-12-15T10:14:44.548Z,94279.41
2022-12-15T10:15:50.628Z,94044.66
2022-12-15T10:17:06.382Z,94266.44
2022-12-15T10:18:19.739Z,94269.25
2022-12-15T10:19:22.641Z,94285.56
2022-12-15T10:20:26.548Z,94071.09
2022-12-15T10:21:28.237Z,94274.47
2022-12-15T10:22:30.143Z,94252.97
2022-12-15T10:23:27.097Z,94107.50
2022-12-15T10:26:01.188Z,94269.72
2022-12-15T10:27:36.035Z,94272.69
2022-12-15T10:28:44.525Z,94266.25
2022-12-15T10:30:02.640Z,94210.38
2022-12-15T10:31:07.305Z,94190.94
2022-12-15T10:32:18.434Z,94280.41
2022-12-15T10:33:22.946Z,94176.41
2022-12-15T10:34:27.717Z,94274.56
2022-12-15T10:35:29.751Z,94117.53
2022-12-15T10:36:29.516Z,94291.31
2022-12-15T10:37:26.352Z,94302.38
2022-12-15T10:38:34.773Z,94183.19
2022-12-15T10:39:43.615Z,94280.66
2022-12-15T10:40:54.826Z,94284.72
2022-12-15T10:42:28.352Z,94286.63
2022-12-15T10:43:37.176Z,94301.38
2022-12-15T10:44:39.193Z,94300.28
2022-12-15T10:45:39.172Z,94320.03
2022-12-15T10:46:46.200Z,94198.13
2022-12-15T10:48:27.810Z,93968.50
2022-12-15T10:49:25.305Z,94182.50
2022-12-15T10:50:25.384Z,94296.63
2022-12-15T10:51:37.031Z,94268.69
2022-12-15T10:52:38.269Z,94161.19
2022-12-15T10:53:50.346Z,94279.63
2022-12-15T10:54:50.113Z,94294.88
2022-12-15T10:55:49.987Z,94285.84
2022-12-15T10:56:59.603Z,94249.16
2022-12-15T10:58:04.611Z,94232.84
2022-12-15T10:59:22.023Z,94241.69
2022-12-15T11:00:22.967Z,94281.47
2022-12-15T11:01:25.397Z,94291.91
2022-12-15T11:02:25.205Z,94284.72
2022-12-15T11:03:26.999Z,94285.94
2022-12-15T11:04:29.052Z,94208.13
2022-12-15T11:05:27.070Z,94294.91
2022-12-15T11:06:31.281Z,94122.41
2022-12-15T11:08:14.915Z,94289.78
2022-12-15T11:09:35.292Z,94287.97
2022-12-15T11:10:52.343Z,94259.63
2022-12-15T11:12:11.951Z,94228.78
2022-12-15T11:13:18.444Z,94286.19
2022-12-15T11:14:27.054Z,94307.84
2022-12-15T11:15:23.793Z,94287.81
2022-12-15T11:16:20.525Z,94122.53
2022-12-15T11:17:23.965Z,94290.94
2022-12-15T11:18:30.912Z,94282.91
2022-12-15T11:19:50.295Z,94068.66
2022-12-15T11:21:23.986Z,94296.03
2022-12-15T11:22:50.463Z,94282.41
2022-12-15T11:24:41.431Z,94285.09
2022-12-15T11:25:51.267Z,94122.50
2022-12-15T11:27:01.787Z,94300.63
2022-12-15T11:28:05.960Z,94280.44
2022-12-15T11:29:20.821Z,93948.69
2022-12-15T11:30:22.336Z,94279.16
2022-12-15T11:31:33.978Z,94273.94
2022-12-15T11:32:36.655Z,94315.00
2022-12-15T11:33:33.930Z,94270.69
2022-12-15T11:34:45.029Z,94317.38
2022-12-15T11:36:09.770Z,94291.78
2022-12-15T11:37:44.976Z,94291.38
2022-12-15T11:38:52.265Z,94286.53
2022-12-15T11:39:54.921Z,94294.25
2022-12-15T11:40:56.465Z,94314.13
2022-12-15T11:41:58.951Z,94297.84
2022-12-15T11:43:21.858Z,94086.28
2022-12-15T11:44:30.547Z,94291.75
2022-12-15T11:45:55.558Z,94302.22
2022-12-15T11:46:59.177Z,94294.09
2022-12-15T11:48:17.474Z,94296.59
2022-12-15T11:49:26.298Z,94292.28
2022-12-15T11:51:02.771Z,94291.75
2022-12-15T11:52:40.064Z,94286.50
2022-12-15T11:53:52.212Z,94308.78
2022-12-15T11:54:49.099Z,94294.75
2022-12-15T11:56:07.364Z,94303.75
2022-12-15T11:57:41.401Z,94298.81
2022-12-15T11:59:22.743Z,94300.94
2022-12-15T12:00:22.179Z,94114.41
2022-12-15T12:01:22.049Z,94302.38
2022-12-15T12:02:45.694Z,94268.53
2022-12-15T12:04:04.496Z,94311.53
2022-12-15T12:05:20.135Z,94308.53
2022-12-15T12:06:31.774Z,94304.25
2022-12-15T12:07:44.509Z,94309.31
2022-12-15T12:09:00.009Z,94154.06
2022-12-15T12:10:40.232Z,94310.25
2022-12-15T12:12:04.492Z,94314.09
2022-12-15T12:13:03.868Z,94314.19
2022-12-15T12:14:18.918Z,94321.09
2022-12-15T12:15:53.048Z,94319.72
2022-12-15T12:16:52.716Z,94313.13
2022-12-15T12:17:55.119Z,94105.38
2022-12-15T12:19:01.137Z,94325.97
2022-12-15T12:20:11.495Z,94312.09
2022-12-15T12:21:15.437Z,94326.78
2022-12-15T12:22:25.936Z,94273.38
2022-12-15T12:23:32.915Z,94260.72
2022-12-15T12:24:55.666Z,94312.47
2022-12-15T12:26:03.368Z,94243.56
2022-12-15T12:27:33.868Z,94322.59
2022-12-15T12:28:48.717Z,94347.50
2022-12-15T12:29:51.783Z,94349.28
2022-12-15T12:30:50.659Z,94109.19
2022-12-15T12:32:05.240Z,94360.81
2022-12-15T12:33:02.124Z,94340.88
2022-12-15T12:34:08.844Z,94306.44
2022-12-15T12:35:33.470Z,94176.75
2022-12-15T12:36:30.658Z,94315.47
2022-12-15T12:37:42.674Z,94347.94
2022-12-15T12:38:50.556Z,94345.47
2022-12-15T12:39:51.036Z,94190.16
2022-12-15T12:40:56.694Z,94349.66
2022-12-15T12:42:38.082Z,94302.66
2022-12-15T12:45:58.785Z,94355.38
2022-12-15T12:47:17.998Z,94146.72
2022-12-15T12:48:30.957Z,94012.75
2022-12-15T12:49:41.933Z,94344.91
2022-12-15T12:50:38.793Z,94279.63
2022-12-15T12:51:40.582Z,94189.00
2022-12-15T12:52:38.145Z,94309.06
2022-12-15T12:53:35.502Z,94339.81
2022-12-15T12:54:35.485Z,94352.00
2022-12-15T12:55:42.907Z,94247.75
2022-12-15T12:56:43.706Z,94367.34
2022-12-15T12:57:44.022Z,94360.94
2022-12-15T12:58:45.431Z,94353.09
2022-12-15T12:59:52.655Z,94355.34
2022-12-15T13:01:11.482Z,94358.28
2022-12-15T13:02:31.169Z,94351.38
2022-12-15T13:03:28.162Z,94361.03
2022-12-15T13:04:30.736Z,94349.81
2022-12-15T13:05:33.805Z,94372.41
2022-12-15T13:06:36.546Z,94357.00
2022-12-15T13:07:37.953Z,94370.13
2022-12-15T13:08:51.784Z,94349.44
2022-12-15T13:10:21.569Z,94362.25
2022-12-15T13:11:49.310Z,94347.53
2022-12-15T13:13:15.479Z,94347.72
2022-12-15T13:14:26.085Z,94159.56
2022-12-15T13:15:39.908Z,94371.28
2022-12-15T13:16:40.237Z,94381.03
2022-12-15T13:17:48.633Z,94381.06